sensor_id;sensor_type;location;lat;lon;timestamp;pressure;altitude;pressure_sealevel;temperature
76394;BMP180;65216;51.090;-115.352;2023-02-01T00:01:22;86392.20;;;20.70
76394;BMP180;65216;51.090;-115.352;2023-02-01T00:03:49;86402.20;;;20.70
76394;BMP180;65216;51.090;-115.352;2023-02-01T00:06:17;86388.80;;;20.70
76394;BMP180;65216;51.090;-115.352;2023-02-01T00:08:44;86381.40;;;20.70
76394;BMP180;65216;51.090;-115.352;2023-02-01T00:11:12;86387.80;;;20.70
76394;BMP180;65216;51.090;-115.352;2023-02-01T00:13:45;86400.20;;;20.70
76394;BMP180;65216;51.090;-115.352;2023-02-01T00:16:27;86390.60;;;20.70
76394;BMP180;65216;51.090;-115.352;2023-02-01T00:19:04;86371.00;;;20.70
76394;BMP180;65216;51.090;-115.352;2023-02-01T00:21:32;86388.00;;;20.70
76394;BMP180;65216;51.090;-115.352;2023-02-01T00:24:03;86396.80;;;20.70
76394;BMP180;65216;51.090;-115.352;2023-02-01T00:26:39;86392.20;;;20.70
76394;BMP180;65216;51.090;-115.352;2023-02-01T00:29:17;86402.80;;;20.70
76394;BMP180;65216;51.090;-115.352;2023-02-01T00:31:46;86395.40;;;20.70
76394;BMP180;65216;51.090;-115.352;2023-02-01T00:34:16;86385.80;;;20.70
76394;BMP180;65216;51.090;-115.352;2023-02-01T00:36:49;86400.80;;;20.70
76394;BMP180;65216;51.090;-115.352;2023-02-01T00:39:19;86404.20;;;20.70
76394;BMP180;65216;51.090;-115.352;2023-02-01T00:41:50;86408.60;;;20.70
76394;BMP180;65216;51.090;-115.352;2023-02-01T00:44:17;86413.20;;;20.70
76394;BMP180;65216;51.090;-115.352;2023-02-01T00:46:47;86412.00;;;20.68
76394;BMP180;65216;51.090;-115.352;2023-02-01T00:49:15;86414.00;;;20.70
76394;BMP180;65216;51.090;-115.352;2023-02-01T00:51:42;86406.80;;;20.70
76394;BMP180;65216;51.090;-115.352;2023-02-01T00:54:10;86414.20;;;20.60
76394;BMP180;65216;51.090;-115.352;2023-02-01T00:56:37;86420.40;;;20.60
76394;BMP180;65216;51.090;-115.352;2023-02-01T00:59:07;86413.40;;;20.60
76394;BMP180;65216;51.090;-115.352;2023-02-01T01:01:37;86402.20;;;20.60
76394;BMP180;65216;51.090;-115.352;2023-02-01T01:04:07;86407.60;;;20.60
76394;BMP180;65216;51.090;-115.352;2023-02-01T01:06:40;86415.40;;;20.60
76394;BMP180;65216;51.090;-115.352;2023-02-01T01:09:08;86409.00;;;20.60
76394;BMP180;65216;51.090;-115.352;2023-02-01T01:11:38;86429.80;;;20.60
76394;BMP180;65216;51.090;-115.352;2023-02-01T01:14:09;86443.00;;;20.60
76394;BMP180;65216;51.090;-115.352;2023-02-01T01:16:38;86418.40;;;20.60
76394;BMP180;65216;51.090;-115.352;2023-02-01T01:19:06;86423.00;;;20.60
76394;BMP180;65216;51.090;-115.352;2023-02-01T01:21:34;86417.80;;;20.60
76394;BMP180;65216;51.090;-115.352;2023-02-01T01:24:01;86425.40;;;20.60
76394;BMP180;65216;51.090;-115.352;2023-02-01T01:26:30;86435.00;;;20.60
76394;BMP180;65216;51.090;-115.352;2023-02-01T01:28:59;86437.20;;;20.60
76394;BMP180;65216;51.090;-115.352;2023-02-01T01:31:28;86443.00;;;20.60
76394;BMP180;65216;51.090;-115.352;2023-02-01T01:33:59;86428.40;;;20.60
76394;BMP180;65216;51.090;-115.352;2023-02-01T01:36:28;86424.00;;;20.60
76394;BMP180;65216;51.090;-115.352;2023-02-01T01:38:55;86413.80;;;20.60
76394;BMP180;65216;51.090;-115.352;2023-02-01T01:41:28;86437.00;;;20.60
76394;BMP180;65216;51.090;-115.352;2023-02-01T01:44:04;86423.60;;;20.60
76394;BMP180;65216;51.090;-115.352;2023-02-01T01:46:37;86424.40;;;20.50
76394;BMP180;65216;51.090;-115.352;2023-02-01T01:51:51;86439.20;;;20.60
76394;BMP180;65216;51.090;-115.352;2023-02-01T01:54:31;86430.80;;;20.58
76394;BMP180;65216;51.090;-115.352;2023-02-01T01:57:18;86435.60;;;20.60
76394;BMP180;65216;51.090;-115.352;2023-02-01T01:59:58;86448.60;;;20.60
76394;BMP180;65216;51.090;-115.352;2023-02-01T02:02:28;86429.00;;;20.60
76394;BMP180;65216;51.090;-115.352;2023-02-01T02:04:55;86435.40;;;20.60
76394;BMP180;65216;51.090;-115.352;2023-02-01T02:07:32;86446.60;;;20.60
76394;BMP180;65216;51.090;-115.352;2023-02-01T02:10:03;86438.20;;;20.58
76394;BMP180;65216;51.090;-115.352;2023-02-01T02:12:32;86464.80;;;20.50
76394;BMP180;65216;51.090;-115.352;2023-02-01T02:15:07;86448.80;;;20.50
76394;BMP180;65216;51.090;-115.352;2023-02-01T02:18:08;86448.40;;;20.50
76394;BMP180;65216;51.090;-115.352;2023-02-01T02:21:10;86456.00;;;20.50
76394;BMP180;65216;51.090;-115.352;2023-02-01T02:33:41;86472.80;;;20.50
76394;BMP180;65216;51.090;-115.352;2023-02-01T02:36:35;86458.20;;;20.40
76394;BMP180;65216;51.090;-115.352;2023-02-01T02:39:33;86475.40;;;20.40
76394;BMP180;65216;51.090;-115.352;2023-02-01T02:46:40;86474.60;;;20.40
76394;BMP180;65216;51.090;-115.352;2023-02-01T02:49:26;86452.60;;;20.50
76394;BMP180;65216;51.090;-115.352;2023-02-01T02:52:20;86469.00;;;20.48
76394;BMP180;65216;51.090;-115.352;2023-02-01T02:55:08;86468.40;;;20.50
76394;BMP180;65216;51.090;-115.352;2023-02-01T02:57:44;86463.80;;;20.48
76394;BMP180;65216;51.090;-115.352;2023-02-01T03:00:35;86474.20;;;20.40
76394;BMP180;65216;51.090;-115.352;2023-02-01T03:03:21;86461.40;;;20.40
76394;BMP180;65216;51.090;-115.352;2023-02-01T03:06:15;86476.00;;;20.40
76394;BMP180;65216;51.090;-115.352;2023-02-01T03:08:43;86483.40;;;20.40
76394;BMP180;65216;51.090;-115.352;2023-02-01T03:11:14;86481.80;;;20.32
76394;BMP180;65216;51.090;-115.352;2023-02-01T03:13:54;86479.40;;;20.30
76394;BMP180;65216;51.090;-115.352;2023-02-01T03:19:06;86477.60;;;20.34
76394;BMP180;65216;51.090;-115.352;2023-02-01T03:21:55;86487.40;;;20.40
76394;BMP180;65216;51.090;-115.352;2023-02-01T03:24:44;86487.00;;;20.40
76394;BMP180;65216;51.090;-115.352;2023-02-01T03:32:51;86506.80;;;20.30
76394;BMP180;65216;51.090;-115.352;2023-02-01T03:35:47;86501.00;;;20.40
76394;BMP180;65216;51.090;-115.352;2023-02-01T03:44:26;86491.00;;;20.30
76394;BMP180;65216;51.090;-115.352;2023-02-01T03:47:25;86496.80;;;20.30
76394;BMP180;65216;51.090;-115.352;2023-02-01T03:50:04;86486.00;;;20.34
76394;BMP180;65216;51.090;-115.352;2023-02-01T03:52:40;86499.20;;;20.30
76394;BMP180;65216;51.090;-115.352;2023-02-01T03:55:13;86498.20;;;20.30
76394;BMP180;65216;51.090;-115.352;2023-02-01T03:58:04;86492.80;;;20.30
76394;BMP180;65216;51.090;-115.352;2023-02-01T04:00:36;86492.20;;;20.30
76394;BMP180;65216;51.090;-115.352;2023-02-01T04:03:05;86503.00;;;20.30
76394;BMP180;65216;51.090;-115.352;2023-02-01T04:05:33;86502.00;;;20.30
76394;BMP180;65216;51.090;-115.352;2023-02-01T04:08:01;86510.00;;;20.38
76394;BMP180;65216;51.090;-115.352;2023-02-01T04:10:28;86517.40;;;20.40
76394;BMP180;65216;51.090;-115.352;2023-02-01T04:12:56;86503.20;;;20.40
76394;BMP180;65216;51.090;-115.352;2023-02-01T04:15:26;86504.60;;;20.40
76394;BMP180;65216;51.090;-115.352;2023-02-01T04:17:59;86500.20;;;20.40
76394;BMP180;65216;51.090;-115.352;2023-02-01T04:20:28;86516.60;;;20.40
76394;BMP180;65216;51.090;-115.352;2023-02-01T04:22:58;86515.40;;;20.40
76394;BMP180;65216;51.090;-115.352;2023-02-01T04:25:26;86512.40;;;20.40
76394;BMP180;65216;51.090;-115.352;2023-02-01T04:27:53;86513.40;;;20.42
76394;BMP180;65216;51.090;-115.352;2023-02-01T04:30:29;86498.20;;;20.40
76394;BMP180;65216;51.090;-115.352;2023-02-01T04:32:57;86505.20;;;20.40
76394;BMP180;65216;51.090;-115.352;2023-02-01T04:35:24;86507.80;;;20.40
76394;BMP180;65216;51.090;-115.352;2023-02-01T04:37:51;86512.80;;;20.40
76394;BMP180;65216;51.090;-115.352;2023-02-01T04:40:19;86504.00;;;20.40
76394;BMP180;65216;51.090;-115.352;2023-02-01T04:42:46;86508.20;;;20.40
76394;BMP180;65216;51.090;-115.352;2023-02-01T04:45:13;86518.20;;;20.40
76394;BMP180;65216;51.090;-115.352;2023-02-01T04:47:44;86513.40;;;20.40
76394;BMP180;65216;51.090;-115.352;2023-02-01T04:50:12;86514.80;;;20.40
76394;BMP180;65216;51.090;-115.352;2023-02-01T04:52:39;86521.40;;;20.40
76394;BMP180;65216;51.090;-115.352;2023-02-01T04:55:11;86526.80;;;20.40
76394;BMP180;65216;51.090;-115.352;2023-02-01T04:57:40;86524.00;;;20.40
76394;BMP180;65216;51.090;-115.352;2023-02-01T05:00:12;86514.80;;;20.40
76394;BMP180;65216;51.090;-115.352;2023-02-01T05:02:40;86508.00;;;20.36
76394;BMP180;65216;51.090;-115.352;2023-02-01T05:05:07;86515.40;;;20.30
76394;BMP180;65216;51.090;-115.352;2023-02-01T05:07:35;86519.80;;;20.30
76394;BMP180;65216;51.090;-115.352;2023-02-01T05:10:02;86527.60;;;20.30
76394;BMP180;65216;51.090;-115.352;2023-02-01T05:12:30;86517.60;;;20.30
76394;BMP180;65216;51.090;-115.352;2023-02-01T05:15:18;86516.20;;;20.30
76394;BMP180;65216;51.090;-115.352;2023-02-01T05:17:45;86520.80;;;20.30
76394;BMP180;65216;51.090;-115.352;2023-02-01T05:20:16;86515.00;;;20.30
76394;BMP180;65216;51.090;-115.352;2023-02-01T05:22:46;86528.60;;;20.30
76394;BMP180;65216;51.090;-115.352;2023-02-01T05:25:14;86530.20;;;20.30
76394;BMP180;65216;51.090;-115.352;2023-02-01T05:27:41;86528.40;;;20.30
76394;BMP180;65216;51.090;-115.352;2023-02-01T05:30:10;86524.80;;;20.22
76394;BMP180;65216;51.090;-115.352;2023-02-01T05:32:37;86521.40;;;20.22
76394;BMP180;65216;51.090;-115.352;2023-02-01T05:35:05;86531.60;;;20.20
76394;BMP180;65216;51.090;-115.352;2023-02-01T05:37:33;86528.20;;;20.20
76394;BMP180;65216;51.090;-115.352;2023-02-01T05:40:00;86522.00;;;20.20
76394;BMP180;65216;51.090;-115.352;2023-02-01T05:42:28;86523.00;;;20.20
76394;BMP180;65216;51.090;-115.352;2023-02-01T05:44:55;86526.20;;;20.20
76394;BMP180;65216;51.090;-115.352;2023-02-01T05:47:22;86519.60;;;20.20
76394;BMP180;65216;51.090;-115.352;2023-02-01T05:49:50;86521.20;;;20.20
76394;BMP180;65216;51.090;-115.352;2023-02-01T05:52:17;86520.00;;;20.20
76394;BMP180;65216;51.090;-115.352;2023-02-01T05:54:48;86526.00;;;20.18
76394;BMP180;65216;51.090;-115.352;2023-02-01T05:57:16;86521.60;;;20.10
76394;BMP180;65216;51.090;-115.352;2023-02-01T05:59:43;86518.80;;;20.10
76394;BMP180;65216;51.090;-115.352;2023-02-01T06:02:13;86518.60;;;20.10
76394;BMP180;65216;51.090;-115.352;2023-02-01T06:04:40;86524.40;;;20.10
76394;BMP180;65216;51.090;-115.352;2023-02-01T06:07:09;86516.80;;;20.10
76394;BMP180;65216;51.090;-115.352;2023-02-01T06:09:39;86532.60;;;20.10
76394;BMP180;65216;51.090;-115.352;2023-02-01T06:12:07;86530.80;;;20.10
76394;BMP180;65216;51.090;-115.352;2023-02-01T06:14:34;86530.20;;;20.10
76394;BMP180;65216;51.090;-115.352;2023-02-01T06:17:04;86532.60;;;20.10
76394;BMP180;65216;51.090;-115.352;2023-02-01T06:19:32;86534.20;;;20.10
76394;BMP180;65216;51.090;-115.352;2023-02-01T06:22:00;86537.40;;;20.10
76394;BMP180;65216;51.090;-115.352;2023-02-01T06:24:27;86536.20;;;20.08
76394;BMP180;65216;51.090;-115.352;2023-02-01T06:26:55;86539.80;;;20.06
76394;BMP180;65216;51.090;-115.352;2023-02-01T06:29:25;86531.00;;;20.04
76394;BMP180;65216;51.090;-115.352;2023-02-01T06:31:55;86528.40;;;20.02
76394;BMP180;65216;51.090;-115.352;2023-02-01T06:34:26;86541.80;;;20.00
76394;BMP180;65216;51.090;-115.352;2023-02-01T06:36:53;86550.20;;;20.00
76394;BMP180;65216;51.090;-115.352;2023-02-01T06:39:21;86556.20;;;20.00
76394;BMP180;65216;51.090;-115.352;2023-02-01T06:41:49;86554.80;;;20.00
76394;BMP180;65216;51.090;-115.352;2023-02-01T06:44:17;86543.60;;;20.00
76394;BMP180;65216;51.090;-115.352;2023-02-01T06:46:45;86552.80;;;20.00
76394;BMP180;65216;51.090;-115.352;2023-02-01T06:49:12;86559.80;;;20.00
76394;BMP180;65216;51.090;-115.352;2023-02-01T06:51:43;86544.60;;;20.00
76394;BMP180;65216;51.090;-115.352;2023-02-01T06:54:11;86553.20;;;20.00
76394;BMP180;65216;51.090;-115.352;2023-02-01T06:56:38;86545.80;;;20.00
76394;BMP180;65216;51.090;-115.352;2023-02-01T06:59:07;86557.00;;;20.00
76394;BMP180;65216;51.090;-115.352;2023-02-01T07:01:37;86559.80;;;19.98
76394;BMP180;65216;51.090;-115.352;2023-02-01T07:04:05;86552.60;;;20.00
76394;BMP180;65216;51.090;-115.352;2023-02-01T07:06:32;86563.60;;;19.90
76394;BMP180;65216;51.090;-115.352;2023-02-01T07:08:59;86560.80;;;19.94
76394;BMP180;65216;51.090;-115.352;2023-02-01T07:11:27;86563.00;;;19.90
76394;BMP180;65216;51.090;-115.352;2023-02-01T07:13:54;86557.00;;;19.90
76394;BMP180;65216;51.090;-115.352;2023-02-01T07:16:22;86560.20;;;19.90
76394;BMP180;65216;51.090;-115.352;2023-02-01T07:18:51;86561.20;;;19.90
76394;BMP180;65216;51.090;-115.352;2023-02-01T07:21:20;86570.00;;;19.90
76394;BMP180;65216;51.090;-115.352;2023-02-01T07:23:47;86566.00;;;19.90
76394;BMP180;65216;51.090;-115.352;2023-02-01T07:26:15;86565.20;;;19.90
76394;BMP180;65216;51.090;-115.352;2023-02-01T07:28:43;86577.40;;;19.90
76394;BMP180;65216;51.090;-115.352;2023-02-01T07:31:17;86572.40;;;19.90
76394;BMP180;65216;51.090;-115.352;2023-02-01T07:33:48;86577.00;;;19.90
76394;BMP180;65216;51.090;-115.352;2023-02-01T07:36:19;86569.80;;;19.90
76394;BMP180;65216;51.090;-115.352;2023-02-01T07:38:47;86569.80;;;19.90
76394;BMP180;65216;51.090;-115.352;2023-02-01T07:41:18;86565.60;;;19.90
76394;BMP180;65216;51.090;-115.352;2023-02-01T07:43:48;86563.00;;;19.90
76394;BMP180;65216;51.090;-115.352;2023-02-01T07:46:17;86555.20;;;19.90
76394;BMP180;65216;51.090;-115.352;2023-02-01T07:48:47;86561.60;;;19.90
76394;BMP180;65216;51.090;-115.352;2023-02-01T07:51:18;86560.20;;;19.90
76394;BMP180;65216;51.090;-115.352;2023-02-01T07:53:46;86558.00;;;19.90
76394;BMP180;65216;51.090;-115.352;2023-02-01T07:56:18;86559.40;;;19.90
76394;BMP180;65216;51.090;-115.352;2023-02-01T07:58:54;86557.60;;;19.90
76394;BMP180;65216;51.090;-115.352;2023-02-01T08:01:28;86558.20;;;19.90
76394;BMP180;65216;51.090;-115.352;2023-02-01T08:04:05;86563.60;;;19.90
76394;BMP180;65216;51.090;-115.352;2023-02-01T08:06:33;86565.20;;;19.90
76394;BMP180;65216;51.090;-115.352;2023-02-01T08:09:05;86562.20;;;19.90
76394;BMP180;65216;51.090;-115.352;2023-02-01T08:11:37;86566.80;;;19.88
76394;BMP180;65216;51.090;-115.352;2023-02-01T08:14:07;86551.00;;;19.84
76394;BMP180;65216;51.090;-115.352;2023-02-01T08:16:34;86553.80;;;19.84
76394;BMP180;65216;51.090;-115.352;2023-02-01T08:19:04;86561.60;;;19.84
76394;BMP180;65216;51.090;-115.352;2023-02-01T08:21:31;86550.40;;;19.82
76394;BMP180;65216;51.090;-115.352;2023-02-01T08:24:13;86549.00;;;19.82
76394;BMP180;65216;51.090;-115.352;2023-02-01T08:26:40;86553.80;;;19.80
76394;BMP180;65216;51.090;-115.352;2023-02-01T08:29:13;86554.60;;;19.80
76394;BMP180;65216;51.090;-115.352;2023-02-01T08:31:43;86550.60;;;19.80
76394;BMP180;65216;51.090;-115.352;2023-02-01T08:34:11;86546.40;;;19.80
76394;BMP180;65216;51.090;-115.352;2023-02-01T08:36:38;86543.40;;;19.80
76394;BMP180;65216;51.090;-115.352;2023-02-01T08:39:11;86544.80;;;19.80
76394;BMP180;65216;51.090;-115.352;2023-02-01T08:41:38;86548.60;;;19.80
76394;BMP180;65216;51.090;-115.352;2023-02-01T08:44:06;86542.40;;;19.80
76394;BMP180;65216;51.090;-115.352;2023-02-01T08:46:34;86541.80;;;19.80
76394;BMP180;65216;51.090;-115.352;2023-02-01T08:49:01;86540.80;;;19.80
76394;BMP180;65216;51.090;-115.352;2023-02-01T08:51:32;86537.60;;;19.80
76394;BMP180;65216;51.090;-115.352;2023-02-01T08:53:59;86531.00;;;19.80
76394;BMP180;65216;51.090;-115.352;2023-02-01T08:56:28;86520.60;;;19.80
76394;BMP180;65216;51.090;-115.352;2023-02-01T08:58:55;86507.20;;;19.80
76394;BMP180;65216;51.090;-115.352;2023-02-01T09:01:22;86535.60;;;19.80
76394;BMP180;65216;51.090;-115.352;2023-02-01T09:03:50;86539.80;;;19.80
76394;BMP180;65216;51.090;-115.352;2023-02-01T09:06:21;86547.20;;;19.80
76394;BMP180;65216;51.090;-115.352;2023-02-01T09:08:48;86545.00;;;19.80
76394;BMP180;65216;51.090;-115.352;2023-02-01T09:11:18;86545.40;;;19.80
76394;BMP180;65216;51.090;-115.352;2023-02-01T09:13:49;86536.40;;;19.80
76394;BMP180;65216;51.090;-115.352;2023-02-01T09:16:17;86536.00;;;19.80
76394;BMP180;65216;51.090;-115.352;2023-02-01T09:18:44;86537.60;;;19.80
76394;BMP180;65216;51.090;-115.352;2023-02-01T09:21:12;86542.80;;;19.80
76394;BMP180;65216;51.090;-115.352;2023-02-01T09:23:39;86549.20;;;19.78
76394;BMP180;65216;51.090;-115.352;2023-02-01T09:26:07;86545.80;;;19.80
76394;BMP180;65216;51.090;-115.352;2023-02-01T09:28:34;86550.80;;;19.80
76394;BMP180;65216;51.090;-115.352;2023-02-01T09:31:03;86548.80;;;19.80
76394;BMP180;65216;51.090;-115.352;2023-02-01T09:33:33;86551.80;;;19.74
76394;BMP180;65216;51.090;-115.352;2023-02-01T09:36:04;86551.80;;;19.74
76394;BMP180;65216;51.090;-115.352;2023-02-01T09:38:32;86550.20;;;19.74
76394;BMP180;65216;51.090;-115.352;2023-02-01T09:46:45;86560.20;;;19.76
76394;BMP180;65216;51.090;-115.352;2023-02-01T09:49:23;86562.20;;;19.70
76394;BMP180;65216;51.090;-115.352;2023-02-01T09:52:05;86560.20;;;19.72
76394;BMP180;65216;51.090;-115.352;2023-02-01T09:54:52;86556.00;;;19.70
76394;BMP180;65216;51.090;-115.352;2023-02-01T09:57:44;86552.00;;;19.70
76394;BMP180;65216;51.090;-115.352;2023-02-01T10:00:23;86555.60;;;19.70
76394;BMP180;65216;51.090;-115.352;2023-02-01T10:02:55;86554.60;;;19.70
76394;BMP180;65216;51.090;-115.352;2023-02-01T10:18:38;86560.60;;;19.70
76394;BMP180;65216;51.090;-115.352;2023-02-01T10:24:11;86563.20;;;19.70
76394;BMP180;65216;51.090;-115.352;2023-02-01T10:26:47;86573.40;;;19.70
76394;BMP180;65216;51.090;-115.352;2023-02-01T10:29:22;86566.20;;;19.70
76394;BMP180;65216;51.090;-115.352;2023-02-01T10:31:52;86573.40;;;19.70
76394;BMP180;65216;51.090;-115.352;2023-02-01T10:34:29;86568.00;;;19.70
76394;BMP180;65216;51.090;-115.352;2023-02-01T10:37:27;86570.40;;;19.70
76394;BMP180;65216;51.090;-115.352;2023-02-01T10:39:59;86578.00;;;19.70
76394;BMP180;65216;51.090;-115.352;2023-02-01T10:42:29;86573.80;;;19.70
76394;BMP180;65216;51.090;-115.352;2023-02-01T10:45:02;86571.00;;;19.70
76394;BMP180;65216;51.090;-115.352;2023-02-01T10:47:29;86572.20;;;19.70
76394;BMP180;65216;51.090;-115.352;2023-02-01T10:58:19;86570.20;;;19.70
76394;BMP180;65216;51.090;-115.352;2023-02-01T11:01:07;86568.80;;;19.70
76394;BMP180;65216;51.090;-115.352;2023-02-01T11:03:42;86574.20;;;19.70
76394;BMP180;65216;51.090;-115.352;2023-02-01T11:06:26;86565.20;;;19.70
76394;BMP180;65216;51.090;-115.352;2023-02-01T11:09:09;86567.20;;;19.60
76394;BMP180;65216;51.090;-115.352;2023-02-01T11:14:34;86568.40;;;19.60
76394;BMP180;65216;51.090;-115.352;2023-02-01T11:17:39;86574.60;;;19.60
76394;BMP180;65216;51.090;-115.352;2023-02-01T11:22:53;86581.40;;;19.50
76394;BMP180;65216;51.090;-115.352;2023-02-01T11:25:24;86569.40;;;19.50
76394;BMP180;65216;51.090;-115.352;2023-02-01T11:27:55;86571.20;;;19.50
76394;BMP180;65216;51.090;-115.352;2023-02-01T11:30:36;86569.40;;;19.50
76394;BMP180;65216;51.090;-115.352;2023-02-01T11:33:05;86569.60;;;19.50
76394;BMP180;65216;51.090;-115.352;2023-02-01T11:35:37;86568.20;;;19.50
76394;BMP180;65216;51.090;-115.352;2023-02-01T11:38:31;86559.00;;;19.46
76394;BMP180;65216;51.090;-115.352;2023-02-01T11:41:26;86559.60;;;19.40
76394;BMP180;65216;51.090;-115.352;2023-02-01T11:43:59;86561.00;;;19.40
76394;BMP180;65216;51.090;-115.352;2023-02-01T11:46:34;86572.80;;;19.40
76394;BMP180;65216;51.090;-115.352;2023-02-01T11:49:25;86573.20;;;19.40
76394;BMP180;65216;51.090;-115.352;2023-02-01T12:06:59;86581.40;;;19.30
76394;BMP180;65216;51.090;-115.352;2023-02-01T12:10:20;86577.60;;;19.30
76394;BMP180;65216;51.090;-115.352;2023-02-01T12:13:14;86588.00;;;19.30
76394;BMP180;65216;51.090;-115.352;2023-02-01T12:24:37;86585.60;;;19.30
76394;BMP180;65216;51.090;-115.352;2023-02-01T12:39:36;86590.80;;;19.20
76394;BMP180;65216;51.090;-115.352;2023-02-01T12:42:40;86588.00;;;19.20
76394;BMP180;65216;51.090;-115.352;2023-02-01T12:47:55;86588.80;;;19.20
76394;BMP180;65216;51.090;-115.352;2023-02-01T12:50:50;86583.60;;;19.20
76394;BMP180;65216;51.090;-115.352;2023-02-01T12:57:04;86586.20;;;19.20
76394;BMP180;65216;51.090;-115.352;2023-02-01T12:59:31;86584.40;;;19.20
76394;BMP180;65216;51.090;-115.352;2023-02-01T13:02:52;86584.40;;;19.20
76394;BMP180;65216;51.090;-115.352;2023-02-01T13:05:21;86586.40;;;19.20
76394;BMP180;65216;51.090;-115.352;2023-02-01T13:08:02;86572.80;;;19.20
76394;BMP180;65216;51.090;-115.352;2023-02-01T13:16:50;86581.80;;;19.20
76394;BMP180;65216;51.090;-115.352;2023-02-01T13:22:19;86575.60;;;19.20
76394;BMP180;65216;51.090;-115.352;2023-02-01T13:25:04;86584.80;;;19.20
76394;BMP180;65216;51.090;-115.352;2023-02-01T13:27:38;86577.40;;;19.20
76394;BMP180;65216;51.090;-115.352;2023-02-01T13:33:58;86581.20;;;19.20
76394;BMP180;65216;51.090;-115.352;2023-02-01T13:42:51;86580.80;;;19.20
76394;BMP180;65216;51.090;-115.352;2023-02-01T13:45:25;86573.00;;;19.20
76394;BMP180;65216;51.090;-115.352;2023-02-01T13:47:58;86579.00;;;19.18
76394;BMP180;65216;51.090;-115.352;2023-02-01T13:50:34;86572.60;;;19.20
76394;BMP180;65216;51.090;-115.352;2023-02-01T13:56:02;86576.00;;;19.16
76394;BMP180;65216;51.090;-115.352;2023-02-01T13:58:39;86570.60;;;19.10
76394;BMP180;65216;51.090;-115.352;2023-02-01T14:03:57;86572.60;;;19.10
76394;BMP180;65216;51.090;-115.352;2023-02-01T14:11:51;86578.60;;;19.10
76394;BMP180;65216;51.090;-115.352;2023-02-01T14:19:32;86573.60;;;19.10
76394;BMP180;65216;51.090;-115.352;2023-02-01T14:24:57;86571.60;;;19.10
76394;BMP180;65216;51.090;-115.352;2023-02-01T14:27:34;86567.80;;;19.10
76394;BMP180;65216;51.090;-115.352;2023-02-01T14:30:11;86575.40;;;19.10
76394;BMP180;65216;51.090;-115.352;2023-02-01T14:32:50;86574.20;;;19.10
76394;BMP180;65216;51.090;-115.352;2023-02-01T14:35:23;86569.20;;;19.10
76394;BMP180;65216;51.090;-115.352;2023-02-01T14:37:59;86571.60;;;19.10
76394;BMP180;65216;51.090;-115.352;2023-02-01T14:40:30;86570.20;;;19.10
76394;BMP180;65216;51.090;-115.352;2023-02-01T14:43:01;86577.80;;;19.10
76394;BMP180;65216;51.090;-115.352;2023-02-01T14:50:58;86582.80;;;19.10
76394;BMP180;65216;51.090;-115.352;2023-02-01T14:53:37;86576.20;;;19.10
76394;BMP180;65216;51.090;-115.352;2023-02-01T15:01:34;86599.60;;;19.10
76394;BMP180;65216;51.090;-115.352;2023-02-01T15:04:13;86596.40;;;19.10
76394;BMP180;65216;51.090;-115.352;2023-02-01T15:06:57;86591.20;;;19.10
76394;BMP180;65216;51.090;-115.352;2023-02-01T15:09:39;86586.60;;;19.10
76394;BMP180;65216;51.090;-115.352;2023-02-01T15:17:55;86591.80;;;19.18
76394;BMP180;65216;51.090;-115.352;2023-02-01T15:20:30;86595.00;;;19.20
76394;BMP180;65216;51.090;-115.352;2023-02-01T15:23:06;86597.80;;;19.20
76394;BMP180;65216;51.090;-115.352;2023-02-01T15:25:46;86607.40;;;19.20
76394;BMP180;65216;51.090;-115.352;2023-02-01T15:28:16;86613.80;;;19.20
76394;BMP180;65216;51.090;-115.352;2023-02-01T15:33:29;86607.80;;;19.20
76394;BMP180;65216;51.090;-115.352;2023-02-01T15:38:45;86610.60;;;19.20
76394;BMP180;65216;51.090;-115.352;2023-02-01T15:41:17;86619.20;;;19.20
76394;BMP180;65216;51.090;-115.352;2023-02-01T15:44:13;86610.00;;;19.26
76394;BMP180;65216;51.090;-115.352;2023-02-01T15:46:50;86617.80;;;19.30
76394;BMP180;65216;51.090;-115.352;2023-02-01T15:49:39;86629.40;;;19.30
76394;BMP180;65216;51.090;-115.352;2023-02-01T15:52:22;86608.60;;;19.30
76394;BMP180;65216;51.090;-115.352;2023-02-01T15:55:08;86613.00;;;19.30
76394;BMP180;65216;51.090;-115.352;2023-02-01T15:57:44;86619.20;;;19.30
76394;BMP180;65216;51.090;-115.352;2023-02-01T16:00:34;86617.00;;;19.30
76394;BMP180;65216;51.090;-115.352;2023-02-01T16:03:44;86605.60;;;19.30
76394;BMP180;65216;51.090;-115.352;2023-02-01T16:06:31;86614.60;;;19.30
76394;BMP180;65216;51.090;-115.352;2023-02-01T16:09:13;86620.20;;;19.30
76394;BMP180;65216;51.090;-115.352;2023-02-01T16:11:53;86625.20;;;19.30
76394;BMP180;65216;51.090;-115.352;2023-02-01T16:14:21;86632.00;;;19.30
76394;BMP180;65216;51.090;-115.352;2023-02-01T16:16:50;86625.40;;;19.30
76394;BMP180;65216;51.090;-115.352;2023-02-01T16:19:19;86628.40;;;19.30
76394;BMP180;65216;51.090;-115.352;2023-02-01T16:21:46;86628.40;;;19.30
76394;BMP180;65216;51.090;-115.352;2023-02-01T16:24:13;86629.40;;;19.30
76394;BMP180;65216;51.090;-115.352;2023-02-01T16:26:41;86622.60;;;19.30
76394;BMP180;65216;51.090;-115.352;2023-02-01T16:29:09;86621.00;;;19.34
76394;BMP180;65216;51.090;-115.352;2023-02-01T16:31:39;86616.80;;;19.38
76394;BMP180;65216;51.090;-115.352;2023-02-01T16:34:14;86618.20;;;19.40
76394;BMP180;65216;51.090;-115.352;2023-02-01T16:36:48;86621.60;;;19.40
76394;BMP180;65216;51.090;-115.352;2023-02-01T16:39:20;86615.60;;;19.40
76394;BMP180;65216;51.090;-115.352;2023-02-01T16:41:48;86627.00;;;19.40
76394;BMP180;65216;51.090;-115.352;2023-02-01T16:44:17;86623.00;;;19.40
76394;BMP180;65216;51.090;-115.352;2023-02-01T16:46:50;86628.40;;;19.40
76394;BMP180;65216;51.090;-115.352;2023-02-01T16:49:25;86620.00;;;19.40
76394;BMP180;65216;51.090;-115.352;2023-02-01T16:51:57;86628.40;;;19.40
76394;BMP180;65216;51.090;-115.352;2023-02-01T16:54:25;86629.00;;;19.40
76394;BMP180;65216;51.090;-115.352;2023-02-01T16:56:53;86634.80;;;19.40